Погода Рагозинона неделю

Минская область, Белоруссия

23 - 29 июля
  • 23июля
    Сегодня
    +16°
    +26°
    Облачно с прояснениями
    ВремяПогодаТемператураВлажностьДавлениеВетер, м/сВероятность осадков
    00:00Ясно и безоблачно+18°C83 %747 мм1.6 м/с2 %
    03:00Ясно и безоблачно+16°C92 %747 мм1.7 м/с2 %
    06:00Ясно и безоблачно+16°C95 %747 мм1.4 м/с2 %
    09:00Ясно и безоблачно+21°C74 %748 мм2.2 м/с2 %
    12:00Ясно и безоблачно+24°C59 %747 мм2.0 м/с3 %
    15:00Облачно с прояснениями+26°C50 %747 мм1.9 м/с27 %
    18:00Облачно с прояснениями+26°C51 %747 мм2.1 м/с21 %
    21:00Небольшая облачность+22°C68 %747 мм1.7 м/с6 %
  • 24июля
    Среда
    +16°
    +26°
    Практически безоблачно
    ВремяПогодаТемператураВлажностьДавлениеВетер, м/сВероятность осадков
    00:00Небольшая облачность+19°C76 %747 мм2.0 м/с3 %
    03:00Облачно с прояснениями+18°C83 %747 мм2.1 м/с8 %
    06:00Небольшая облачность+17°C83 %746 мм2.1 м/с8 %
    09:00Практически безоблачно+21°C64 %746 мм2.5 м/с7 %
    12:00Небольшая облачность+24°C48 %746 мм2.8 м/с28 %
    15:00Практически безоблачно+25°C44 %745 мм2.3 м/с42 %
    18:00Небольшая облачность и лёгкий дождик+25°C43 %745 мм3.2 м/с51 %
    21:00Небольшая облачность+22°C59 %745 мм2.1 м/с29 %
  • 25июля
    Четверг
    +15°
    +25°
    Небольшая облачность
    ВремяПогодаТемператураВлажностьДавлениеВетер, м/сВероятность осадков
    00:00Ясно и безоблачно+19°C71 %745 мм3.0 м/с21 %
    03:00Небольшая облачность+18°C69 %745 мм3.1 м/с25 %
    06:00Облачно с прояснениями+17°C73 %744 мм2.6 м/с26 %
    09:00Облачно с прояснениями+20°C60 %745 мм3.0 м/с23 %
    12:00Облачно с прояснениями+23°C42 %745 мм3.4 м/с18 %
    15:00Небольшая облачность+25°C36 %745 мм3.4 м/с17 %
    18:00Облачно с прояснениями+24°C40 %745 мм3.7 м/с22 %
    21:00Небольшая облачность+20°C60 %745 мм1.8 м/с16 %
  • 26июля
    Пятница
    +14°
    +25°
    Облачно с прояснениями
    ВремяПогодаТемператураВлажностьДавлениеВетер, м/сВероятность осадков
    00:00Облачно с прояснениями+17°C68 %745 мм2.2 м/с8 %
    03:00Облачно с прояснениями+13°C83 %746 мм2.0 м/с6 %
    06:00Облачно с прояснениями+14°C83 %746 мм1.6 м/с13 %
    09:00Облачно с прояснениями+20°C63 %747 мм1.0 м/с16 %
    12:00Облачно с прояснениями+24°C39 %747 мм1.4 м/с17 %
    15:00Облачно с прояснениями+24°C38 %748 мм0.6 м/с25 %
    18:00Практически безоблачно+23°C42 %748 мм2.3 м/с29 %
    21:00Ясно и безоблачно+23°C53 %749 мм2.1 м/с17 %
Мы используем cookies
Соглашаюсь